createdAt,value
2023-02-28T01:09:41.186Z,6.37
2023-02-28T01:12:10.723Z,5.90
2023-02-28T01:14:39.705Z,5.33
2023-02-28T01:17:08.557Z,6.93
2023-02-28T01:19:37.973Z,6.00
2023-02-28T01:22:08.968Z,6.67
2023-02-28T01:24:37.696Z,5.60
2023-02-28T01:27:07.823Z,8.10
2023-02-28T01:29:39.498Z,5.47
2023-02-28T01:32:08.195Z,4.90
2023-02-28T01:34:37.903Z,5.83
2023-02-28T01:37:06.756Z,5.63
2023-02-28T01:39:35.473Z,7.20
2023-02-28T01:42:07.560Z,5.53
2023-02-28T01:45:06.301Z,6.50
2023-02-28T01:47:40.898Z,7.00
2023-02-28T01:50:18.871Z,7.30
2023-02-28T01:52:50.430Z,7.20
2023-02-28T01:55:24.495Z,8.77
2023-02-28T01:58:00.230Z,8.27
2023-02-28T02:00:32.091Z,7.97
2023-02-28T02:03:07.404Z,8.50
2023-02-28T02:05:41.708Z,8.30
2023-02-28T02:08:15.725Z,7.27
2023-02-28T02:10:48.869Z,8.43
2023-02-28T02:14:19.474Z,9.60
2023-02-28T02:17:12.542Z,8.90
2023-02-28T02:20:44.896Z,7.10
2023-02-28T02:24:02.524Z,8.83
2023-02-28T02:27:10.927Z,8.70
2023-02-28T02:30:38.698Z,11.03
2023-02-28T02:33:58.467Z,9.73
2023-02-28T02:36:37.795Z,7.63
2023-02-28T02:39:16.143Z,8.97
2023-02-28T02:41:53.453Z,9.83
2023-02-28T02:44:29.547Z,9.20
2023-02-28T02:47:06.584Z,9.63
2023-02-28T02:49:42.136Z,10.50
2023-02-28T02:52:19.330Z,9.57
2023-02-28T02:54:56.411Z,10.90
2023-02-28T02:57:33.571Z,9.33
2023-02-28T03:00:06.057Z,12.93
2023-02-28T03:02:36.984Z,9.47
2023-02-28T03:05:16.255Z,10.60
2023-02-28T03:07:46.471Z,10.23
2023-02-28T03:10:40.195Z,11.83
2023-02-28T03:13:48.844Z,12.40
2023-02-28T03:16:38.751Z,10.77
2023-02-28T03:19:40.335Z,10.50
2023-02-28T03:22:26.348Z,11.10
2023-02-28T03:25:08.988Z,10.83
2023-02-28T03:27:44.978Z,11.47
2023-02-28T03:30:27.199Z,10.90
2023-02-28T03:33:00.687Z,11.07
2023-02-28T03:35:37.200Z,11.53
2023-02-28T03:38:16.142Z,12.17
2023-02-28T03:40:52.326Z,10.83
2023-02-28T03:43:27.455Z,12.47
2023-02-28T03:45:58.659Z,12.80
2023-02-28T03:48:34.990Z,10.80
2023-02-28T03:51:09.390Z,10.87
2023-02-28T03:53:44.506Z,9.40
2023-02-28T03:56:20.536Z,8.27
2023-02-28T03:58:58.132Z,10.50
2023-02-28T04:01:35.528Z,9.07
2023-02-28T04:04:05.147Z,9.83
2023-02-28T04:06:36.615Z,10.37
2023-02-28T04:09:07.739Z,9.20
2023-02-28T04:11:40.444Z,9.83
2023-02-28T04:14:11.809Z,12.47
2023-02-28T04:16:43.113Z,9.90
2023-02-28T04:19:14.415Z,12.33
2023-02-28T04:21:46.545Z,10.93
2023-02-28T04:24:17.240Z,11.00
2023-02-28T04:26:49.741Z,12.57
2023-02-28T04:29:23.636Z,14.80
2023-02-28T04:31:54.321Z,11.07
2023-02-28T04:34:24.631Z,10.27
2023-02-28T04:37:12.073Z,10.40
2023-02-28T04:39:42.039Z,12.47
2023-02-28T04:42:12.809Z,13.37
2023-02-28T04:44:41.644Z,13.33
2023-02-28T04:47:10.640Z,11.80
2023-02-28T04:49:39.388Z,10.27
2023-02-28T04:52:08.701Z,12.23
2023-02-28T04:54:39.495Z,11.43
2023-02-28T04:57:08.373Z,10.63
2023-02-28T04:59:38.506Z,10.67
2023-02-28T05:02:08.270Z,10.20
2023-02-28T05:04:38.034Z,12.00
2023-02-28T05:07:06.811Z,13.00
2023-02-28T05:09:35.747Z,11.10
2023-02-28T05:12:04.649Z,13.10
2023-02-28T05:14:33.390Z,12.90
2023-02-28T05:17:03.880Z,13.63
2023-02-28T05:19:32.667Z,14.53
2023-02-28T05:22:03.925Z,18.87
2023-02-28T05:24:33.093Z,15.37
2023-02-28T05:27:04.481Z,14.43
2023-02-28T05:29:33.227Z,13.87
2023-02-28T05:32:03.398Z,16.97
2023-02-28T05:34:32.244Z,14.17
2023-02-28T05:37:01.084Z,12.37
2023-02-28T05:39:32.316Z,13.43
2023-02-28T05:42:01.744Z,14.57
2023-02-28T05:44:30.878Z,12.70
2023-02-28T05:47:00.573Z,11.53
2023-02-28T05:49:31.225Z,10.47
2023-02-28T05:52:03.955Z,12.47
2023-02-28T05:54:33.166Z,13.87
2023-02-28T05:57:15.666Z,13.70
2023-02-28T05:59:51.879Z,15.23
2023-02-28T06:02:21.061Z,16.93
2023-02-28T06:04:51.531Z,16.57
2023-02-28T06:07:20.352Z,14.33
2023-02-28T06:09:49.886Z,21.87
2023-02-28T06:12:20.628Z,18.73
2023-02-28T06:14:49.386Z,14.93
2023-02-28T06:17:18.083Z,18.07
2023-02-28T06:19:46.770Z,15.47
2023-02-28T06:22:16.912Z,20.23
2023-02-28T06:24:45.543Z,14.30
2023-02-28T06:27:14.217Z,15.30
2023-02-28T06:29:43.384Z,13.03
2023-02-28T06:32:12.560Z,16.43
2023-02-28T06:34:41.546Z,17.20
2023-02-28T06:37:10.454Z,15.07
2023-02-28T06:39:40.580Z,16.43
2023-02-28T06:42:10.268Z,16.97
2023-02-28T06:44:39.110Z,18.40
2023-02-28T06:47:09.070Z,19.00
2023-02-28T06:49:39.843Z,20.33
2023-02-28T06:52:09.790Z,23.23
2023-02-28T06:54:40.876Z,24.77
2023-02-28T06:57:09.750Z,19.07
2023-02-28T06:59:38.637Z,18.47
2023-02-28T07:02:08.303Z,18.40
2023-02-28T07:04:37.073Z,21.40
2023-02-28T07:07:05.915Z,18.90
2023-02-28T07:09:34.546Z,18.60
2023-02-28T07:12:04.834Z,19.10
2023-02-28T07:14:33.533Z,21.50
2023-02-28T07:17:02.268Z,23.07
2023-02-28T07:19:30.947Z,21.63
2023-02-28T07:21:59.585Z,22.50
2023-02-28T07:24:29.420Z,22.37
2023-02-28T07:26:58.298Z,23.67
2023-02-28T07:29:29.018Z,22.13
2023-02-28T07:31:58.540Z,20.57
2023-02-28T07:34:27.597Z,22.80
2023-02-28T07:36:56.503Z,25.50
2023-02-28T07:39:25.173Z,22.30
2023-02-28T07:41:53.946Z,25.90
2023-02-28T07:44:29.291Z,23.47
2023-02-28T07:46:58.043Z,26.33
2023-02-28T07:49:26.871Z,29.90
2023-02-28T07:51:55.599Z,30.50
2023-02-28T07:54:24.341Z,79.80
2023-02-28T07:56:53.018Z,193.93
2023-02-28T07:59:21.799Z,71.77
2023-02-28T08:01:52.472Z,39.23
2023-02-28T08:04:21.650Z,34.20
2023-02-28T08:06:53.031Z,28.30
2023-02-28T08:09:21.926Z,28.47
2023-02-28T08:11:50.631Z,30.87
2023-02-28T08:14:19.327Z,29.87
2023-02-28T08:16:47.976Z,25.13
2023-02-28T08:19:18.069Z,24.73
2023-02-28T08:21:46.874Z,22.17
2023-02-28T08:24:15.537Z,25.93
2023-02-28T08:26:44.428Z,25.03
2023-02-28T08:33:50.227Z,17.40
2023-02-28T08:36:18.223Z,21.10
2023-02-28T08:38:46.503Z,19.70
2023-02-28T08:41:14.734Z,20.00
2023-02-28T08:43:43.330Z,18.00
2023-02-28T08:46:14.063Z,21.73
2023-02-28T08:48:41.884Z,25.53
2023-02-28T08:56:12.457Z,19.47
2023-02-28T08:58:40.962Z,17.07
2023-02-28T09:01:12.327Z,17.73
2023-02-28T09:03:41.228Z,36.63
2023-02-28T09:06:10.457Z,21.93
2023-02-28T09:08:38.399Z,15.50
2023-02-28T09:11:06.519Z,15.53
2023-02-28T09:18:20.720Z,11.63
2023-02-28T09:20:48.148Z,16.13
2023-02-28T09:23:15.559Z,14.57
2023-02-28T09:25:51.468Z,11.50
2023-02-28T09:28:19.510Z,11.83
2023-02-28T09:30:50.434Z,15.03
2023-02-28T09:33:21.372Z,14.73
2023-02-28T09:40:57.858Z,10.83
2023-02-28T09:43:33.083Z,12.70
2023-02-28T09:46:14.518Z,18.50
2023-02-28T09:48:50.533Z,13.57
2023-02-28T09:51:40.133Z,10.40
2023-02-28T09:54:18.460Z,13.43
2023-02-28T09:56:54.518Z,14.67
2023-02-28T09:59:52.170Z,10.57
2023-02-28T10:02:49.125Z,11.50
2023-02-28T10:05:22.165Z,11.47
2023-02-28T10:08:16.209Z,21.10
2023-02-28T10:10:48.038Z,18.17
2023-02-28T10:13:34.646Z,18.10
2023-02-28T10:16:10.740Z,12.40
2023-02-28T10:18:49.167Z,12.27
2023-02-28T10:21:27.641Z,12.87
2023-02-28T10:24:06.243Z,13.77
2023-02-28T10:26:35.778Z,10.07
2023-02-28T10:29:06.241Z,10.10
2023-02-28T10:31:35.360Z,11.93
2023-02-28T10:34:05.265Z,10.37
2023-02-28T10:36:36.172Z,13.90
2023-02-28T10:39:39.061Z,10.53
2023-02-28T10:42:22.741Z,13.33
2023-02-28T10:45:07.762Z,11.70
2023-02-28T10:47:44.096Z,11.10
2023-02-28T10:50:34.400Z,11.73
2023-02-28T10:53:52.492Z,13.43
2023-02-28T10:56:28.052Z,11.13
2023-02-28T10:59:00.732Z,11.20
2023-02-28T11:01:42.293Z,13.43
2023-02-28T11:04:33.887Z,13.17
2023-02-28T11:07:06.946Z,11.77
2023-02-28T11:09:39.902Z,13.57
2023-02-28T11:12:21.998Z,14.30
2023-02-28T11:14:54.517Z,12.77
2023-02-28T11:17:27.153Z,13.30
2023-02-28T11:20:00.394Z,11.70
2023-02-28T11:22:33.929Z,12.37
2023-02-28T11:25:08.892Z,9.30
2023-02-28T11:27:50.591Z,12.47
2023-02-28T11:30:41.579Z,13.33
2023-02-28T11:33:31.741Z,11.60
2023-02-28T11:36:05.576Z,13.10
2023-02-28T11:38:38.589Z,11.47
2023-02-28T11:41:44.618Z,14.27
2023-02-28T11:44:34.971Z,15.43
2023-02-28T11:47:13.961Z,12.83
2023-02-28T11:50:01.717Z,12.93
2023-02-28T11:52:44.901Z,16.23
2023-02-28T11:55:23.626Z,15.40
2023-02-28T11:58:17.341Z,16.40
2023-02-28T12:01:11.236Z,14.53
2023-02-28T12:03:53.160Z,12.30
2023-02-28T12:06:35.289Z,14.03
2023-02-28T12:09:32.710Z,13.07
2023-02-28T12:12:17.005Z,12.37
2023-02-28T12:15:07.105Z,13.87
2023-02-28T12:17:56.334Z,11.57
2023-02-28T12:20:36.792Z,11.50
2023-02-28T12:23:51.660Z,13.00
2023-02-28T12:26:29.670Z,10.80
2023-02-28T12:29:12.848Z,12.93
2023-02-28T12:31:48.717Z,12.10
2023-02-28T12:34:25.246Z,10.53
2023-02-28T12:37:01.004Z,11.10
2023-02-28T12:39:49.829Z,12.20
2023-02-28T12:42:29.496Z,19.87
2023-02-28T12:45:04.248Z,12.83
2023-02-28T12:47:33.118Z,11.17
2023-02-28T12:50:07.141Z,13.03
2023-02-28T12:52:50.849Z,12.67
2023-02-28T12:55:34.325Z,14.90
2023-02-28T12:58:16.076Z,13.57
2023-02-28T13:01:15.724Z,13.57
2023-02-28T13:04:30.631Z,11.60
2023-02-28T13:07:48.771Z,13.90
2023-02-28T13:10:19.883Z,13.20
2023-02-28T13:13:00.144Z,11.70
2023-02-28T13:15:30.751Z,13.30
2023-02-28T13:18:01.955Z,16.37
2023-02-28T13:20:52.399Z,13.90
2023-02-28T13:23:43.276Z,12.40
2023-02-28T13:26:14.073Z,14.30
2023-02-28T13:29:34.597Z,17.57
2023-02-28T13:32:42.899Z,11.50
2023-02-28T13:35:41.858Z,12.67
2023-02-28T13:38:41.979Z,14.97
2023-02-28T13:41:49.516Z,13.70
2023-02-28T13:44:24.366Z,13.97
2023-02-28T13:47:30.378Z,14.07
2023-02-28T13:50:23.609Z,12.83
2023-02-28T13:53:18.718Z,14.33
2023-02-28T13:55:55.977Z,13.87
2023-02-28T13:58:46.109Z,15.27
2023-02-28T14:01:32.504Z,17.30
2023-02-28T14:04:48.427Z,13.40
2023-02-28T14:07:26.315Z,16.93
2023-02-28T14:10:06.882Z,15.33
2023-02-28T14:13:06.242Z,16.87
2023-02-28T14:16:07.159Z,15.17
2023-02-28T14:18:48.007Z,16.60
2023-02-28T14:21:27.418Z,15.37
2023-02-28T14:24:37.830Z,15.80
2023-02-28T14:27:31.270Z,16.63
2023-02-28T14:31:05.853Z,17.00
2023-02-28T14:33:53.788Z,15.57
2023-02-28T14:36:38.360Z,15.93
2023-02-28T14:39:14.637Z,16.87
2023-02-28T14:41:46.107Z,15.50
2023-02-28T14:44:21.178Z,19.80
2023-02-28T14:46:55.424Z,19.90
2023-02-28T14:49:29.480Z,16.27
2023-02-28T14:52:15.251Z,18.90
2023-02-28T14:55:40.473Z,16.77
2023-02-28T14:58:25.179Z,14.63
2023-02-28T15:01:03.810Z,16.47
2023-02-28T15:03:45.855Z,18.60
2023-02-28T15:09:09.890Z,16.70
2023-02-28T15:11:40.838Z,16.27
2023-02-28T15:14:16.308Z,16.47
2023-02-28T15:16:51.074Z,17.90
2023-02-28T15:19:26.545Z,17.43
2023-02-28T15:22:02.126Z,18.23
2023-02-28T15:24:41.317Z,17.73
2023-02-28T15:27:16.709Z,19.70
2023-02-28T15:29:52.210Z,16.93
2023-02-28T15:32:30.902Z,15.90
2023-02-28T15:35:02.118Z,16.20
2023-02-28T15:37:41.825Z,15.73
2023-02-28T15:40:26.337Z,18.17
2023-02-28T15:43:07.186Z,16.40
2023-02-28T15:45:50.138Z,19.93
2023-02-28T15:48:30.689Z,18.70
2023-02-28T15:51:07.919Z,20.53
2023-02-28T15:53:57.840Z,18.93
2023-02-28T15:56:34.202Z,16.37
2023-02-28T15:59:06.940Z,18.33
2023-02-28T16:01:40.517Z,20.67
2023-02-28T16:04:18.154Z,22.07
2023-02-28T16:06:47.212Z,18.63
2023-02-28T16:09:18.934Z,17.10
2023-02-28T16:11:53.067Z,16.17
2023-02-28T16:14:24.996Z,18.83
2023-02-28T16:16:56.845Z,23.33
2023-02-28T16:19:25.998Z,18.90
2023-02-28T16:21:55.344Z,19.03
2023-02-28T16:24:24.193Z,18.17
2023-02-28T16:26:58.926Z,19.27
2023-02-28T16:29:32.710Z,15.67
2023-02-28T16:32:02.279Z,24.20
2023-02-28T16:34:31.063Z,20.10
2023-02-28T16:37:00.951Z,19.50
2023-02-28T16:39:29.644Z,20.63
2023-02-28T16:41:59.710Z,23.50
2023-02-28T16:44:34.799Z,18.73
2023-02-28T16:47:05.649Z,16.20
2023-02-28T16:49:34.398Z,22.50
2023-02-28T16:52:03.062Z,20.23
2023-02-28T16:54:31.721Z,19.33
2023-02-28T16:57:02.109Z,20.40
2023-02-28T17:07:31.047Z,20.90
2023-02-28T17:09:58.798Z,20.10
2023-02-28T17:12:26.363Z,18.17
2023-02-28T17:14:53.838Z,19.27
2023-02-28T17:17:23.194Z,18.33
2023-02-28T17:19:50.692Z,21.17
2023-02-28T17:22:18.020Z,20.53
2023-02-28T20:32:34.066Z,23.33
2023-02-28T20:35:03.226Z,20.77
2023-02-28T20:37:32.161Z,24.27
2023-02-28T20:40:01.131Z,22.30
2023-02-28T20:42:29.929Z,24.40
2023-02-28T20:44:58.707Z,21.50
2023-02-28T20:47:27.579Z,22.50
2023-02-28T20:49:57.868Z,21.47
2023-02-28T20:52:26.842Z,22.83
2023-02-28T20:54:55.620Z,22.03
2023-02-28T20:57:24.363Z,27.87
2023-02-28T20:59:53.078Z,28.40
2023-02-28T21:02:22.462Z,22.67
2023-02-28T21:04:51.297Z,23.03
2023-02-28T21:07:21.474Z,29.77
2023-02-28T21:09:50.200Z,25.17
2023-02-28T21:12:19.001Z,26.13
2023-02-28T21:14:47.952Z,28.13
2023-02-28T21:17:16.909Z,27.87
2023-02-28T21:19:45.766Z,24.80
2023-02-28T21:22:15.157Z,24.60
2023-02-28T21:24:46.101Z,24.23
2023-02-28T21:27:15.742Z,26.10
2023-02-28T21:29:44.744Z,24.37
2023-02-28T21:32:14.705Z,24.60
2023-02-28T21:34:43.615Z,24.13
2023-02-28T21:37:13.065Z,24.13
2023-02-28T21:39:41.797Z,25.50
2023-02-28T21:42:11.937Z,23.97
2023-02-28T21:44:40.812Z,19.53
2023-02-28T21:47:09.716Z,22.90
2023-02-28T21:49:39.246Z,24.07
2023-02-28T21:52:08.113Z,22.87
2023-02-28T21:54:36.952Z,20.87
2023-02-28T21:57:05.991Z,24.90
2023-02-28T21:59:36.596Z,25.67
2023-02-28T22:02:05.781Z,23.30
2023-02-28T22:04:34.505Z,24.40
2023-02-28T22:07:03.197Z,24.90
2023-02-28T22:09:32.053Z,24.43
2023-02-28T22:12:00.707Z,22.73
2023-02-28T22:14:29.427Z,24.13
2023-02-28T22:16:59.865Z,24.50
2023-02-28T22:19:29.474Z,24.13
2023-02-28T22:21:58.815Z,27.20
2023-02-28T22:24:27.512Z,22.00
2023-02-28T22:26:56.414Z,26.40
2023-02-28T22:29:25.246Z,26.63
2023-02-28T22:31:54.038Z,23.47
2023-02-28T22:34:24.141Z,24.13
2023-02-28T22:36:52.900Z,24.10
2023-02-28T22:39:21.993Z,23.47
2023-02-28T22:41:50.769Z,22.00
2023-02-28T22:44:19.433Z,22.23
2023-02-28T22:46:52.843Z,21.53
2023-02-28T22:49:23.030Z,26.73
2023-02-28T22:51:51.899Z,24.33
2023-02-28T22:54:20.806Z,21.97
2023-02-28T22:56:49.519Z,26.03
2023-02-28T22:59:18.600Z,26.47
2023-02-28T23:01:48.199Z,24.83
2023-02-28T23:04:17.084Z,25.80
2023-02-28T23:06:47.253Z,24.10
2023-02-28T23:09:21.558Z,23.17
2023-02-28T23:11:52.474Z,24.57
2023-02-28T23:14:22.670Z,23.87
2023-02-28T23:16:54.088Z,26.20
2023-02-28T23:19:26.480Z,25.50
2023-02-28T23:21:57.702Z,23.47
2023-02-28T23:24:29.002Z,24.50
2023-02-28T23:27:02.062Z,24.30
2023-02-28T23:29:31.754Z,25.70
2023-02-28T23:32:00.811Z,24.67
2023-02-28T23:34:30.618Z,28.17
2023-02-28T23:37:03.544Z,24.13
2023-02-28T23:39:32.929Z,25.30
2023-02-28T23:42:01.940Z,25.90
2023-02-28T23:44:31.905Z,27.00
2023-02-28T23:47:00.926Z,26.27
2023-02-28T23:49:29.586Z,25.63
2023-02-28T23:52:00.837Z,26.20
2023-02-28T23:54:30.975Z,23.90
2023-02-28T23:56:59.683Z,24.17
2023-02-28T23:59:28.456Z,25.93
